sensor_id;sensor_type;location;lat;lon;timestamp;pressure;altitude;pressure_sealevel;temperature;humidity
10658;BME280;5377;43.276;26.930;2022-07-23T00:01:36;99075.84;;;22.84;57.34
10658;BME280;5377;43.276;26.930;2022-07-23T00:04:03;99067.41;;;22.76;58.86
10658;BME280;5377;43.276;26.930;2022-07-23T00:06:31;99093.81;;;22.95;57.56
10658;BME280;5377;43.276;26.930;2022-07-23T00:08:58;98817.94;;;21.10;58.65
10658;BME280;5377;43.276;26.930;2022-07-23T00:11:24;99090.94;;;22.71;58.29
10658;BME280;5377;43.276;26.930;2022-07-23T00:13:52;99089.25;;;22.81;58.25
10658;BME280;5377;43.276;26.930;2022-07-23T00:16:20;99095.25;;;22.78;58.44
10658;BME280;5377;43.276;26.930;2022-07-23T00:18:47;99095.53;;;22.81;58.72
10658;BME280;5377;43.276;26.930;2022-07-23T00:21:13;99101.09;;;22.61;59.46
10658;BME280;5377;43.276;26.930;2022-07-23T00:23:42;99090.09;;;22.71;58.43
10658;BME280;5377;43.276;26.930;2022-07-23T00:26:08;99090.09;;;22.71;58.79
10658;BME280;5377;43.276;26.930;2022-07-23T00:28:35;99096.06;;;22.78;58.67
10658;BME280;5377;43.276;26.930;2022-07-23T00:31:02;99093.94;;;22.70;59.47
10658;BME280;5377;43.276;26.930;2022-07-23T00:33:29;99080.91;;;22.62;59.17
10658;BME280;5377;43.276;26.930;2022-07-23T00:35:56;99092.38;;;22.54;60.09
10658;BME280;5377;43.276;26.930;2022-07-23T00:38:23;99093.97;;;22.65;60.32
10658;BME280;5377;43.276;26.930;2022-07-23T00:40:51;99089.97;;;22.47;60.99
10658;BME280;5377;43.276;26.930;2022-07-23T00:43:19;99086.63;;;22.60;59.88
10658;BME280;5377;43.276;26.930;2022-07-23T00:45:46;99082.28;;;22.59;57.80
10658;BME280;5377;43.276;26.930;2022-07-23T00:48:13;99085.91;;;22.45;59.67
10658;BME280;5377;43.276;26.930;2022-07-23T00:50:40;99085.84;;;22.50;60.01
10658;BME280;5377;43.276;26.930;2022-07-23T00:53:07;99098.69;;;22.49;59.67
10658;BME280;5377;43.276;26.930;2022-07-23T00:55:35;99089.22;;;22.36;61.22
10658;BME280;5377;43.276;26.930;2022-07-23T00:58:03;99083.81;;;22.26;60.93
10658;BME280;5377;43.276;26.930;2022-07-23T01:00:31;99082.16;;;22.30;58.18
10658;BME280;5377;43.276;26.930;2022-07-23T01:02:57;99085.31;;;22.48;58.29
10658;BME280;5377;43.276;26.930;2022-07-23T01:05:24;99083.13;;;22.50;59.39
10658;BME280;5377;43.276;26.930;2022-07-23T01:07:52;99090.53;;;22.44;60.03
10658;BME280;5377;43.276;26.930;2022-07-23T01:10:19;99081.06;;;22.31;60.54
10658;BME280;5377;43.276;26.930;2022-07-23T01:12:58;99081.00;;;22.41;60.76
10658;BME280;5377;43.276;26.930;2022-07-23T01:15:26;99078.25;;;22.47;60.94
10658;BME280;5377;43.276;26.930;2022-07-23T01:17:53;99078.53;;;22.45;61.15
10658;BME280;5377;43.276;26.930;2022-07-23T01:20:20;99078.59;;;22.35;60.70
10658;BME280;5377;43.276;26.930;2022-07-23T01:22:49;99076.63;;;22.40;60.20
10658;BME280;5377;43.276;26.930;2022-07-23T01:25:16;99076.34;;;22.42;60.31
10658;BME280;5377;43.276;26.930;2022-07-23T01:27:43;99074.47;;;22.37;60.74
10658;BME280;5377;43.276;26.930;2022-07-23T01:30:11;99078.38;;;22.16;61.79
10658;BME280;5377;43.276;26.930;2022-07-23T01:32:38;99043.03;;;21.91;60.76
10658;BME280;5377;43.276;26.930;2022-07-23T01:35:06;99070.13;;;22.36;58.48
10658;BME280;5377;43.276;26.930;2022-07-23T01:37:33;99069.31;;;22.36;57.79
10658;BME280;5377;43.276;26.930;2022-07-23T01:40:02;99058.16;;;22.27;57.65
10658;BME280;5377;43.276;26.930;2022-07-23T01:42:29;99059.88;;;22.08;61.14
10658;BME280;5377;43.276;26.930;2022-07-23T01:44:56;99055.53;;;22.07;60.68
10658;BME280;5377;43.276;26.930;2022-07-23T01:47:23;99067.22;;;22.13;61.21
10658;BME280;5377;43.276;26.930;2022-07-23T01:49:50;99067.53;;;22.01;62.79
10658;BME280;5377;43.276;26.930;2022-07-23T01:52:17;99079.22;;;22.12;62.47
10658;BME280;5377;43.276;26.930;2022-07-23T01:54:44;99069.19;;;21.97;62.58
10658;BME280;5377;43.276;26.930;2022-07-23T01:57:12;99065.31;;;22.13;58.82
10658;BME280;5377;43.276;26.930;2022-07-23T01:59:38;99068.91;;;22.03;60.97
10658;BME280;5377;43.276;26.930;2022-07-23T02:02:05;99066.41;;;22.12;60.58
10658;BME280;5377;43.276;26.930;2022-07-23T02:04:32;99071.63;;;21.98;62.66
10658;BME280;5377;43.276;26.930;2022-07-23T02:07:02;99069.72;;;21.99;62.76
10658;BME280;5377;43.276;26.930;2022-07-23T02:09:29;99063.22;;;21.79;62.69
10658;BME280;5377;43.276;26.930;2022-07-23T02:11:56;99070.84;;;21.83;63.56
10658;BME280;5377;43.276;26.930;2022-07-23T02:14:25;99079.59;;;21.79;63.58
10658;BME280;5377;43.276;26.930;2022-07-23T02:16:52;99094.28;;;21.84;63.35
10658;BME280;5377;43.276;26.930;2022-07-23T02:19:19;99071.47;;;21.44;65.02
10658;BME280;5377;43.276;26.930;2022-07-23T02:21:45;99066.56;;;21.56;61.88
10658;BME280;5377;43.276;26.930;2022-07-23T02:24:12;99077.13;;;21.78;60.99
10658;BME280;5377;43.276;26.930;2022-07-23T02:26:39;99082.84;;;21.82;58.68
10658;BME280;5377;43.276;26.930;2022-07-23T02:29:06;99077.66;;;21.90;58.83
10658;BME280;5377;43.276;26.930;2022-07-23T02:31:35;99076.81;;;21.95;57.34
10658;BME280;5377;43.276;26.930;2022-07-23T02:34:02;99073.56;;;21.83;57.55
10658;BME280;5377;43.276;26.930;2022-07-23T02:36:29;99059.69;;;21.74;58.63
10658;BME280;5377;43.276;26.930;2022-07-23T02:38:56;99079.59;;;21.79;61.93
10658;BME280;5377;43.276;26.930;2022-07-23T02:41:23;99082.88;;;21.71;63.40
10658;BME280;5377;43.276;26.930;2022-07-23T02:43:50;99074.16;;;21.69;61.11
10658;BME280;5377;43.276;26.930;2022-07-23T02:46:17;99072.28;;;21.65;61.59
10658;BME280;5377;43.276;26.930;2022-07-23T02:48:45;99060.34;;;21.30;64.21
10658;BME280;5377;43.276;26.930;2022-07-23T02:51:12;99068.22;;;21.52;63.54
10658;BME280;5377;43.276;26.930;2022-07-23T02:53:38;99072.56;;;21.58;63.77
10658;BME280;5377;43.276;26.930;2022-07-23T02:56:05;99084.28;;;21.64;63.56
10658;BME280;5377;43.276;26.930;2022-07-23T02:58:32;99078.03;;;21.43;65.30
10658;BME280;5377;43.276;26.930;2022-07-23T03:00:59;99084.31;;;21.38;66.01
10658;BME280;5377;43.276;26.930;2022-07-23T03:03:26;99080.75;;;21.53;63.63
10658;BME280;5377;43.276;26.930;2022-07-23T03:05:54;99087.25;;;21.67;61.90
10658;BME280;5377;43.276;26.930;2022-07-23T03:08:21;99072.22;;;21.80;61.56
10658;BME280;5377;43.276;26.930;2022-07-23T03:10:48;99079.28;;;21.91;60.01
10658;BME280;5377;43.276;26.930;2022-07-23T03:13:15;99068.19;;;21.62;63.71
10658;BME280;5377;43.276;26.930;2022-07-23T03:15:42;99091.09;;;21.61;64.59
10658;BME280;5377;43.276;26.930;2022-07-23T03:18:09;99094.34;;;21.68;64.01
10658;BME280;5377;43.276;26.930;2022-07-23T03:20:35;99088.03;;;21.78;62.93
10658;BME280;5377;43.276;26.930;2022-07-23T03:23:04;99099.25;;;21.66;63.72
10658;BME280;5377;43.276;26.930;2022-07-23T03:25:31;99093.28;;;21.59;64.17
10658;BME280;5377;43.276;26.930;2022-07-23T03:27:57;99092.19;;;21.50;64.62
10658;BME280;5377;43.276;26.930;2022-07-23T03:30:24;99105.53;;;21.57;65.03
10658;BME280;5377;43.276;26.930;2022-07-23T03:32:51;99106.84;;;21.79;63.43
10658;BME280;5377;43.276;26.930;2022-07-23T03:35:18;99104.16;;;21.64;64.75
10658;BME280;5377;43.276;26.930;2022-07-23T03:37:45;99106.03;;;21.79;64.21
10658;BME280;5377;43.276;26.930;2022-07-23T03:40:13;99106.34;;;21.62;66.18
10658;BME280;5377;43.276;26.930;2022-07-23T03:42:40;99116.69;;;21.70;66.17
10658;BME280;5377;43.276;26.930;2022-07-23T03:45:08;99111.75;;;21.83;64.74
10658;BME280;5377;43.276;26.930;2022-07-23T03:47:35;99109.03;;;21.77;65.68
10658;BME280;5377;43.276;26.930;2022-07-23T03:50:02;99111.75;;;21.83;65.41
10658;BME280;5377;43.276;26.930;2022-07-23T03:52:29;99105.69;;;22.01;65.09
10658;BME280;5377;43.276;26.930;2022-07-23T03:54:56;99097.28;;;21.92;64.21
10658;BME280;5377;43.276;26.930;2022-07-23T03:57:24;99095.91;;;21.95;64.79
10658;BME280;5377;43.276;26.930;2022-07-23T03:59:51;99089.38;;;21.96;65.87
10658;BME280;5377;43.276;26.930;2022-07-23T04:02:18;99100.78;;;22.03;66.59
10658;BME280;5377;43.276;26.930;2022-07-23T04:04:45;99100.25;;;22.06;68.44
10658;BME280;5377;43.276;26.930;2022-07-23T04:07:12;99097.84;;;21.89;69.92
10658;BME280;5377;43.276;26.930;2022-07-23T04:09:39;99109.56;;;21.79;69.95
10658;BME280;5377;43.276;26.930;2022-07-23T04:12:07;99110.69;;;21.68;70.65
10658;BME280;5377;43.276;26.930;2022-07-23T04:14:36;99123.81;;;21.56;71.78
10658;BME280;5377;43.276;26.930;2022-07-23T04:17:03;99122.16;;;21.65;71.12
10658;BME280;5377;43.276;26.930;2022-07-23T04:19:29;99126.50;;;21.71;71.23
10658;BME280;5377;43.276;26.930;2022-07-23T04:21:57;99129.22;;;21.71;71.68
10658;BME280;5377;43.276;26.930;2022-07-23T04:24:24;99125.41;;;21.77;71.22
10658;BME280;5377;43.276;26.930;2022-07-23T04:26:50;99133.56;;;21.83;71.33
10658;BME280;5377;43.276;26.930;2022-07-23T04:29:18;99134.94;;;21.90;69.73
10658;BME280;5377;43.276;26.930;2022-07-23T04:31:46;99130.81;;;21.93;68.59
10658;BME280;5377;43.276;26.930;2022-07-23T04:34:13;99135.44;;;22.07;66.87
10658;BME280;5377;43.276;26.930;2022-07-23T04:36:40;99124.47;;;22.18;66.25
10658;BME280;5377;43.276;26.930;2022-07-23T04:39:07;99128.28;;;22.27;66.16
10658;BME280;5377;43.276;26.930;2022-07-23T04:41:34;99125.22;;;22.38;66.48
10658;BME280;5377;43.276;26.930;2022-07-23T04:44:02;99120.50;;;22.54;66.04
10658;BME280;5377;43.276;26.930;2022-07-23T04:46:29;99106.31;;;22.57;64.65
10658;BME280;5377;43.276;26.930;2022-07-23T04:48:57;99106.28;;;22.62;64.37
10658;BME280;5377;43.276;26.930;2022-07-23T04:51:24;99116.75;;;22.94;62.86
10658;BME280;5377;43.276;26.930;2022-07-23T04:53:51;99124.22;;;23.18;61.99
10658;BME280;5377;43.276;26.930;2022-07-23T04:56:18;99123.06;;;23.29;61.49
10658;BME280;5377;43.276;26.930;2022-07-23T04:58:45;99123.69;;;23.16;62.01
10658;BME280;5377;43.276;26.930;2022-07-23T05:01:12;99112.88;;;23.34;61.41
10658;BME280;5377;43.276;26.930;2022-07-23T05:03:39;99124.50;;;23.50;61.86
10658;BME280;5377;43.276;26.930;2022-07-23T05:06:07;99118.56;;;23.72;60.66
10658;BME280;5377;43.276;26.930;2022-07-23T05:08:34;99119.75;;;23.90;59.38
10658;BME280;5377;43.276;26.930;2022-07-23T05:11:01;99109.69;;;23.85;58.83
10658;BME280;5377;43.276;26.930;2022-07-23T05:13:28;99124.94;;;24.15;58.16
10658;BME280;5377;43.276;26.930;2022-07-23T05:15:55;99117.16;;;24.27;57.83
10658;BME280;5377;43.276;26.930;2022-07-23T05:18:22;99128.56;;;24.35;57.68
10658;BME280;5377;43.276;26.930;2022-07-23T05:20:49;99124.72;;;24.36;56.79
10658;BME280;5377;43.276;26.930;2022-07-23T05:23:17;99116.59;;;24.31;55.82
10658;BME280;5377;43.276;26.930;2022-07-23T05:25:44;99133.03;;;24.49;56.47
10658;BME280;5377;43.276;26.930;2022-07-23T05:28:11;99131.41;;;24.48;57.03
10658;BME280;5377;43.276;26.930;2022-07-23T05:30:38;99125.56;;;24.55;56.05
10658;BME280;5377;43.276;26.930;2022-07-23T05:33:05;99111.41;;;24.48;56.17
10658;BME280;5377;43.276;26.930;2022-07-23T05:35:33;99128.09;;;24.70;56.07
10658;BME280;5377;43.276;26.930;2022-07-23T05:38:00;99123.75;;;24.69;56.55
10658;BME280;5377;43.276;26.930;2022-07-23T05:40:28;99116.47;;;24.78;56.77
10658;BME280;5377;43.276;26.930;2022-07-23T05:42:55;99125.22;;;24.80;57.58
10658;BME280;5377;43.276;26.930;2022-07-23T05:45:22;99100.72;;;24.70;57.67
10658;BME280;5377;43.276;26.930;2022-07-23T05:47:49;99126.91;;;24.76;57.64
10658;BME280;5377;43.276;26.930;2022-07-23T05:50:16;99131.56;;;24.95;57.23
10658;BME280;5377;43.276;26.930;2022-07-23T05:52:43;99097.31;;;24.78;58.35
10658;BME280;5377;43.276;26.930;2022-07-23T05:55:11;99125.59;;;25.11;57.79
10658;BME280;5377;43.276;26.930;2022-07-23T05:57:43;99129.13;;;24.93;58.25
10658;BME280;5377;43.276;26.930;2022-07-23T06:00:10;99125.03;;;25.28;57.57
10658;BME280;5377;43.276;26.930;2022-07-23T06:02:38;99135.50;;;25.26;58.02
10658;BME280;5377;43.276;26.930;2022-07-23T06:05:06;99132.59;;;25.36;57.52
10658;BME280;5377;43.276;26.930;2022-07-23T06:07:34;99146.66;;;25.48;56.92
10658;BME280;5377;43.276;26.930;2022-07-23T06:10:01;99116.59;;;25.57;56.40
10658;BME280;5377;43.276;26.930;2022-07-23T06:12:29;99135.38;;;25.83;56.40
10658;BME280;5377;43.276;26.930;2022-07-23T06:14:57;99126.53;;;25.99;55.74
10658;BME280;5377;43.276;26.930;2022-07-23T06:17:24;99132.97;;;26.08;54.39
10658;BME280;5377;43.276;26.930;2022-07-23T06:19:52;99132.75;;;26.19;54.64
10658;BME280;5377;43.276;26.930;2022-07-23T06:22:19;99120.34;;;26.21;53.96
10658;BME280;5377;43.276;26.930;2022-07-23T06:24:46;99131.97;;;26.46;53.37
10658;BME280;5377;43.276;26.930;2022-07-23T06:27:13;99133.69;;;26.55;52.84
10658;BME280;5377;43.276;26.930;2022-07-23T06:29:40;99134.06;;;26.62;52.65
10658;BME280;5377;43.276;26.930;2022-07-23T06:32:08;99134.16;;;26.71;53.00
10658;BME280;5377;43.276;26.930;2022-07-23T06:34:35;99129.88;;;26.79;51.76
10658;BME280;5377;43.276;26.930;2022-07-23T06:37:02;99101.84;;;26.90;51.56
10658;BME280;5377;43.276;26.930;2022-07-23T06:39:29;99128.38;;;27.09;50.06
10658;BME280;5377;43.276;26.930;2022-07-23T06:41:56;99106.50;;;27.03;49.85
10658;BME280;5377;43.276;26.930;2022-07-23T06:44:23;99118.50;;;27.30;50.16
10658;BME280;5377;43.276;26.930;2022-07-23T06:46:49;99125.81;;;27.34;49.25
10658;BME280;5377;43.276;26.930;2022-07-23T06:49:18;99108.66;;;27.38;50.14
10658;BME280;5377;43.276;26.930;2022-07-23T06:51:45;99117.31;;;27.67;49.76
10658;BME280;5377;43.276;26.930;2022-07-23T06:54:11;99114.16;;;27.82;49.18
10658;BME280;5377;43.276;26.930;2022-07-23T06:56:38;99131.13;;;27.76;48.89
10658;BME280;5377;43.276;26.930;2022-07-23T06:59:05;99117.47;;;28.02;48.61
10658;BME280;5377;43.276;26.930;2022-07-23T07:01:32;99124.84;;;28.23;48.22
10658;BME280;5377;43.276;26.930;2022-07-23T07:03:59;99105.88;;;28.22;49.07
10658;BME280;5377;43.276;26.930;2022-07-23T07:06:27;99124.59;;;28.42;48.72
10658;BME280;5377;43.276;26.930;2022-07-23T07:08:54;99121.22;;;28.54;48.90
10658;BME280;5377;43.276;26.930;2022-07-23T07:11:21;99115.72;;;28.63;48.05
10658;BME280;5377;43.276;26.930;2022-07-23T07:13:49;99051.31;;;28.24;47.21
10658;BME280;5377;43.276;26.930;2022-07-23T07:16:16;99099.69;;;28.82;46.42
10658;BME280;5377;43.276;26.930;2022-07-23T07:18:43;99122.09;;;29.32;45.98
10658;BME280;5377;43.276;26.930;2022-07-23T07:21:10;99120.31;;;29.28;45.43
10658;BME280;5377;43.276;26.930;2022-07-23T07:23:38;99126.13;;;29.35;44.69
10658;BME280;5377;43.276;26.930;2022-07-23T07:26:05;99118.81;;;29.65;42.37
10658;BME280;5377;43.276;26.930;2022-07-23T07:28:32;99076.31;;;29.31;41.73
10658;BME280;5377;43.276;26.930;2022-07-23T07:30:58;99110.91;;;29.93;41.02
10658;BME280;5377;43.276;26.930;2022-07-23T07:33:25;99112.41;;;30.28;40.39
10658;BME280;5377;43.276;26.930;2022-07-23T07:35:52;99125.28;;;30.45;38.13
10658;BME280;5377;43.276;26.930;2022-07-23T07:38:19;99113.44;;;30.45;36.23
10658;BME280;5377;43.276;26.930;2022-07-23T07:40:48;99124.69;;;30.69;36.65
10658;BME280;5377;43.276;26.930;2022-07-23T07:43:15;99112.63;;;30.94;35.57
10658;BME280;5377;43.276;26.930;2022-07-23T07:45:42;99110.72;;;31.07;34.57
10658;BME280;5377;43.276;26.930;2022-07-23T07:48:08;99113.56;;;31.19;34.01
10658;BME280;5377;43.276;26.930;2022-07-23T07:50:35;99112.03;;;31.30;33.79
10658;BME280;5377;43.276;26.930;2022-07-23T07:53:02;99078.81;;;31.30;32.17
10658;BME280;5377;43.276;26.930;2022-07-23T07:55:29;99104.56;;;31.43;33.12
10658;BME280;5377;43.276;26.930;2022-07-23T07:57:58;99078.03;;;31.54;33.12
10658;BME280;5377;43.276;26.930;2022-07-23T08:00:25;99097.47;;;31.67;31.89
10658;BME280;5377;43.276;26.930;2022-07-23T08:02:54;99104.16;;;31.65;32.00
10658;BME280;5377;43.276;26.930;2022-07-23T08:05:23;99108.34;;;31.72;32.86
10658;BME280;5377;43.276;26.930;2022-07-23T08:07:51;99106.59;;;31.67;31.14
10658;BME280;5377;43.276;26.930;2022-07-23T08:10:18;99099.94;;;31.47;30.04
10658;BME280;5377;43.276;26.930;2022-07-23T08:12:47;99105.75;;;32.00;30.95
10658;BME280;5377;43.276;26.930;2022-07-23T08:15:18;99106.69;;;32.28;31.35
10658;BME280;5377;43.276;26.930;2022-07-23T08:17:45;99106.22;;;32.38;31.57
10658;BME280;5377;43.276;26.930;2022-07-23T08:20:15;99087.06;;;32.33;30.65
10658;BME280;5377;43.276;26.930;2022-07-23T08:22:47;99099.94;;;32.53;30.23
10658;BME280;5377;43.276;26.930;2022-07-23T08:25:16;99099.78;;;32.86;30.26
10658;BME280;5377;43.276;26.930;2022-07-23T08:27:43;99105.44;;;32.90;30.57
10658;BME280;5377;43.276;26.930;2022-07-23T08:30:10;99103.28;;;32.59;30.19
10658;BME280;5377;43.276;26.930;2022-07-23T08:32:55;99098.91;;;32.58;29.81
10658;BME280;5377;43.276;26.930;2022-07-23T08:35:28;99093.25;;;33.07;29.03
10658;BME280;5377;43.276;26.930;2022-07-23T08:37:55;99101.25;;;33.36;29.82
10658;BME280;5377;43.276;26.930;2022-07-23T08:40:23;99094.28;;;33.42;29.21
10658;BME280;5377;43.276;26.930;2022-07-23T08:42:52;99097.41;;;33.41;28.93
10658;BME280;5377;43.276;26.930;2022-07-23T08:45:20;99098.22;;;33.57;27.87
10658;BME280;5377;43.276;26.930;2022-07-23T08:47:51;99105.63;;;34.13;27.77
10658;BME280;5377;43.276;26.930;2022-07-23T08:50:19;99095.56;;;34.24;27.33
10658;BME280;5377;43.276;26.930;2022-07-23T08:52:46;99099.31;;;34.82;27.00
10658;BME280;5377;43.276;26.930;2022-07-23T08:55:16;99087.78;;;34.99;26.79
10658;BME280;5377;43.276;26.930;2022-07-23T08:57:43;99090.84;;;35.52;26.55
10658;BME280;5377;43.276;26.930;2022-07-23T09:00:10;99087.06;;;36.10;25.89
10658;BME280;5377;43.276;26.930;2022-07-23T09:02:41;99091.44;;;35.65;25.63
10658;BME280;5377;43.276;26.930;2022-07-23T09:05:11;99070.97;;;35.77;26.53
10658;BME280;5377;43.276;26.930;2022-07-23T09:08:08;99090.63;;;36.33;25.76
10658;BME280;5377;43.276;26.930;2022-07-23T09:10:50;99081.66;;;37.03;25.23
10658;BME280;5377;43.276;26.930;2022-07-23T09:13:28;99024.38;;;36.53;25.74
10658;BME280;5377;43.276;26.930;2022-07-23T09:15:56;99087.31;;;36.50;25.46
10658;BME280;5377;43.276;26.930;2022-07-23T09:18:39;99053.75;;;36.43;26.02
10658;BME280;5377;43.276;26.930;2022-07-23T09:21:13;99084.50;;;36.24;25.86
10658;BME280;5377;43.276;26.930;2022-07-23T09:23:42;99074.34;;;36.92;24.68
10658;BME280;5377;43.276;26.930;2022-07-23T09:29:12;99088.06;;;37.37;24.92
10658;BME280;5377;43.276;26.930;2022-07-23T09:31:48;99086.28;;;37.22;24.08
10658;BME280;5377;43.276;26.930;2022-07-23T09:34:18;99092.63;;;37.53;24.48
10658;BME280;5377;43.276;26.930;2022-07-23T09:36:47;99076.63;;;36.82;24.71
10658;BME280;5377;43.276;26.930;2022-07-23T09:39:15;99090.78;;;37.00;24.31
10658;BME280;5377;43.276;26.930;2022-07-23T09:41:45;99084.88;;;37.05;24.97
10658;BME280;5377;43.276;26.930;2022-07-23T09:44:14;99086.91;;;36.25;24.97
10658;BME280;5377;43.276;26.930;2022-07-23T09:46:42;99069.78;;;36.50;25.00
10658;BME280;5377;43.276;26.930;2022-07-23T09:49:17;99077.44;;;36.83;25.16
10658;BME280;5377;43.276;26.930;2022-07-23T09:51:53;99067.47;;;37.53;25.10
10658;BME280;5377;43.276;26.930;2022-07-23T09:54:25;99052.72;;;38.00;24.07
10658;BME280;5377;43.276;26.930;2022-07-23T09:56:54;99055.72;;;38.25;23.32
10658;BME280;5377;43.276;26.930;2022-07-23T09:59:24;99056.88;;;38.17;23.03
10658;BME280;5377;43.276;26.930;2022-07-23T10:01:52;99059.59;;;37.65;23.85
10658;BME280;5377;43.276;26.930;2022-07-23T10:04:21;99051.88;;;37.52;23.61
10658;BME280;5377;43.276;26.930;2022-07-23T10:06:51;99054.06;;;37.32;24.08
10658;BME280;5377;43.276;26.930;2022-07-23T10:09:23;99046.56;;;37.06;24.52
10658;BME280;5377;43.276;26.930;2022-07-23T10:11:52;99053.88;;;37.14;24.70
10658;BME280;5377;43.276;26.930;2022-07-23T10:14:23;99043.19;;;37.64;24.22
10658;BME280;5377;43.276;26.930;2022-07-23T10:16:50;99014.13;;;36.94;24.74
10658;BME280;5377;43.276;26.930;2022-07-23T10:19:18;99030.97;;;37.38;24.35
10658;BME280;5377;43.276;26.930;2022-07-23T10:21:50;99037.34;;;37.35;24.77
10658;BME280;5377;43.276;26.930;2022-07-23T10:24:27;99033.81;;;37.83;24.23
10658;BME280;5377;43.276;26.930;2022-07-23T10:27:08;99031.47;;;37.88;23.64
10658;BME280;5377;43.276;26.930;2022-07-23T10:29:45;99033.81;;;37.83;24.19
10658;BME280;5377;43.276;26.930;2022-07-23T10:32:23;99035.31;;;37.32;24.67
10658;BME280;5377;43.276;26.930;2022-07-23T10:34:58;99023.19;;;37.58;24.31
10658;BME280;5377;43.276;26.930;2022-07-23T10:37:36;99009.00;;;37.77;24.29
10658;BME280;5377;43.276;26.930;2022-07-23T10:40:10;99030.53;;;38.21;24.32
10658;BME280;5377;43.276;26.930;2022-07-23T10:42:38;99020.53;;;38.20;23.54
10658;BME280;5377;43.276;26.930;2022-07-23T10:45:26;98988.25;;;38.44;23.69
10658;BME280;5377;43.276;26.930;2022-07-23T10:47:54;98999.25;;;38.85;23.30
10658;BME280;5377;43.276;26.930;2022-07-23T10:50:22;98993.78;;;39.27;23.02
10658;BME280;5377;43.276;26.930;2022-07-23T10:53:14;98995.41;;;39.53;23.10
10658;BME280;5377;43.276;26.930;2022-07-23T10:55:52;99000.19;;;39.35;21.99
10658;BME280;5377;43.276;26.930;2022-07-23T10:58:21;98996.59;;;39.27;22.02
10658;BME280;5377;43.276;26.930;2022-07-23T11:00:48;98983.38;;;39.46;22.61
10658;BME280;5377;43.276;26.930;2022-07-23T11:03:29;98968.19;;;39.50;22.07
10658;BME280;5377;43.276;26.930;2022-07-23T11:05:57;98923.72;;;39.38;21.86
10658;BME280;5377;43.276;26.930;2022-07-23T11:08:25;98974.59;;;39.69;22.56
10658;BME280;5377;43.276;26.930;2022-07-23T11:10:55;98968.97;;;39.79;22.47
10658;BME280;5377;43.276;26.930;2022-07-23T11:13:46;98974.16;;;40.09;22.01
10658;BME280;5377;43.276;26.930;2022-07-23T11:16:26;98981.75;;;40.16;21.38
10658;BME280;5377;43.276;26.930;2022-07-23T11:19:10;98968.94;;;40.15;22.25
10658;BME280;5377;43.276;26.930;2022-07-23T11:21:58;98974.50;;;40.33;21.60
10658;BME280;5377;43.276;26.930;2022-07-23T11:24:26;98952.91;;;40.15;21.57
10658;BME280;5377;43.276;26.930;2022-07-23T11:27:02;98972.94;;;40.14;22.30
10658;BME280;5377;43.276;26.930;2022-07-23T11:29:53;98967.38;;;39.96;22.10
10658;BME280;5377;43.276;26.930;2022-07-23T11:32:39;98967.34;;;39.89;21.99
10658;BME280;5377;43.276;26.930;2022-07-23T11:35:25;98953.78;;;39.66;22.41
10658;BME280;5377;43.276;26.930;2022-07-23T11:37:53;98949.72;;;39.49;22.46
10658;BME280;5377;43.276;26.930;2022-07-23T11:40:25;98954.09;;;39.00;22.60
10658;BME280;5377;43.276;26.930;2022-07-23T11:42:56;98950.94;;;39.38;22.93
10658;BME280;5377;43.276;26.930;2022-07-23T11:45:23;98917.31;;;39.34;22.71
10658;BME280;5377;43.276;26.930;2022-07-23T11:47:51;98888.09;;;39.21;23.04
10658;BME280;5377;43.276;26.930;2022-07-23T11:50:18;98949.63;;;38.85;22.25
10658;BME280;5377;43.276;26.930;2022-07-23T11:52:45;98950.47;;;39.00;22.73
10658;BME280;5377;43.276;26.930;2022-07-23T11:55:12;98949.63;;;38.75;22.87
10658;BME280;5377;43.276;26.930;2022-07-23T11:57:43;98937.72;;;39.17;22.25
10658;BME280;5377;43.276;26.930;2022-07-23T12:00:12;98908.88;;;38.95;22.51
10658;BME280;5377;43.276;26.930;2022-07-23T12:02:41;98945.75;;;39.50;22.91
10658;BME280;5377;43.276;26.930;2022-07-23T12:05:11;98948.53;;;39.36;22.54
10658;BME280;5377;43.276;26.930;2022-07-23T12:07:39;98946.47;;;38.97;22.56
10658;BME280;5377;43.276;26.930;2022-07-23T12:10:14;98872.06;;;38.96;23.13
10658;BME280;5377;43.276;26.930;2022-07-23T12:12:44;98940.16;;;39.65;22.68
10658;BME280;5377;43.276;26.930;2022-07-23T12:15:13;98941.31;;;39.92;22.61
10658;BME280;5377;43.276;26.930;2022-07-23T12:17:41;98931.25;;;40.12;21.86
10658;BME280;5377;43.276;26.930;2022-07-23T12:20:11;98934.81;;;38.81;22.53
10658;BME280;5377;43.276;26.930;2022-07-23T12:22:41;98924.63;;;38.27;22.71
10658;BME280;5377;43.276;26.930;2022-07-23T12:25:10;98926.03;;;37.96;23.38
10658;BME280;5377;43.276;26.930;2022-07-23T12:27:38;98913.44;;;38.23;22.91
10658;BME280;5377;43.276;26.930;2022-07-23T12:30:26;98898.00;;;38.72;23.12
10658;BME280;5377;43.276;26.930;2022-07-23T12:32:57;98922.91;;;39.20;23.00
10658;BME280;5377;43.276;26.930;2022-07-23T12:35:32;98911.69;;;39.48;22.94
10658;BME280;5377;43.276;26.930;2022-07-23T12:38:01;98920.09;;;39.77;22.98
10658;BME280;5377;43.276;26.930;2022-07-23T12:40:29;98912.13;;;39.61;21.79
10658;BME280;5377;43.276;26.930;2022-07-23T12:42:59;98908.91;;;39.52;21.93
10658;BME280;5377;43.276;26.930;2022-07-23T12:45:40;98918.13;;;39.31;22.41
10658;BME280;5377;43.276;26.930;2022-07-23T12:48:11;98917.66;;;39.00;22.58
10658;BME280;5377;43.276;26.930;2022-07-23T12:50:44;98844.78;;;38.58;23.20
10658;BME280;5377;43.276;26.930;2022-07-23T12:53:16;98912.91;;;39.26;22.62
10658;BME280;5377;43.276;26.930;2022-07-23T12:55:44;98904.09;;;39.67;22.76
10658;BME280;5377;43.276;26.930;2022-07-23T12:58:14;98911.25;;;38.96;22.70
10658;BME280;5377;43.276;26.930;2022-07-23T13:01:08;98908.09;;;39.37;22.91
10658;BME280;5377;43.276;26.930;2022-07-23T13:03:38;98911.28;;;39.78;23.04
10658;BME280;5377;43.276;26.930;2022-07-23T13:06:07;98909.97;;;40.22;22.58
10658;BME280;5377;43.276;26.930;2022-07-23T13:08:35;98905.03;;;40.55;22.32
10658;BME280;5377;43.276;26.930;2022-07-23T13:11:02;98877.69;;;40.69;21.49
10658;BME280;5377;43.276;26.930;2022-07-23T13:13:31;98901.09;;;41.11;20.77